Time,TemperatureF,DewpointF,PressureIn,WindDirection,WindDirectionDegrees,WindSpeedMPH,WindSpeedGustMPH,Humidity,HourlyPrecipIn,Conditions,Clouds,dailyrainin,SolarRadiationWatts/m^2,SoftwareType,DateUTC
2013-09-28 00:00:00,59.2,35.0,30.04,West,279,0.0,0.0,41,0.00,,,0.00,0,weatherlink.com 1.10,2013-09-28 07:00:00,
2013-09-28 00:15:00,59.1,35.0,30.04,West,279,0.0,0.0,40,0.00,,,0.00,0,weatherlink.com 1.10,2013-09-28 07:15:00,
2013-09-28 00:45:00,58.8,35.0,30.04,West,279,0.0,0.0,41,0.00,,,0.00,0,weatherlink.com 1.10,2013-09-28 07:45:00,
2013-09-28 01:00:00,58.5,35.0,30.04,West,279,0.0,0.0,42,0.00,,,0.00,0,weatherlink.com 1.10,2013-09-28 08:00:00,
2013-09-28 01:30:00,58.2,37.0,30.04,West,279,0.0,0.0,46,0.00,,,0.00,0,weatherlink.com 1.10,2013-09-28 08:30:00,
2013-09-28 01:45:00,58.1,38.0,30.04,West,279,0.0,0.0,48,0.00,,,0.00,0,weatherlink.com 1.10,2013-09-28 08:45:00,
2013-09-28 02:00:00,57.8,39.0,30.05,West,279,0.0,0.0,49,0.00,,,0.00,0,weatherlink.com 1.10,2013-09-28 09:00:00,
2013-09-28 02:15:00,56.8,39.0,30.04,West,279,0.0,0.0,51,0.00,,,0.00,0,weatherlink.com 1.10,2013-09-28 09:15:00,
2013-09-28 02:30:00,56.3,39.0,30.04,West,279,0.0,1.0,53,0.00,,,0.00,0,weatherlink.com 1.10,2013-09-28 09:30:00,
2013-09-28 02:45:00,56.9,39.0,30.04,West,279,0.0,1.0,51,0.00,,,0.00,0,weatherlink.com 1.10,2013-09-28 09:45:00,
2013-09-28 03:00:00,56.3,40.0,30.03,West,279,0.0,1.0,54,0.00,,,0.00,0,weatherlink.com 1.10,2013-09-28 10:00:00,
2013-09-28 03:15:00,56.7,40.0,30.03,West,279,0.0,0.0,54,0.00,,,0.00,0,weatherlink.com 1.10,2013-09-28 10:15:00,
2013-09-28 03:30:00,56.9,40.0,30.02,West,279,0.0,0.0,54,0.00,,,0.00,0,weatherlink.com 1.10,2013-09-28 10:30:00,
2013-09-28 03:45:00,57.0,40.0,30.02,West,279,0.0,0.0,53,0.00,,,0.00,0,weatherlink.com 1.10,2013-09-28 10:45:00,
2013-09-28 04:00:00,56.8,40.0,30.02,West,279,0.0,0.0,53,0.00,,,0.00,0,weatherlink.com 1.10,2013-09-28 11:00:00,
2013-09-28 04:15:00,57.1,39.0,30.02,West,279,0.0,0.0,51,0.00,,,0.00,0,weatherlink.com 1.10,2013-09-28 11:15:00,
2013-09-28 04:30:00,57.6,38.0,30.02,West,279,0.0,0.0,49,0.00,,,0.00,0,weatherlink.com 1.10,2013-09-28 11:30:00,
2013-09-28 04:45:00,57.7,38.0,30.02,West,279,0.0,0.0,48,0.00,,,0.00,0,weatherlink.com 1.10,2013-09-28 11:45:00,
2013-09-28 05:00:00,57.7,37.0,30.02,West,279,0.0,0.0,47,0.00,,,0.00,0,weatherlink.com 1.10,2013-09-28 12:00:00,
2013-09-28 05:15:00,58.2,37.0,30.02,West,279,0.0,0.0,45,0.00,,,0.00,0,weatherlink.com 1.10,2013-09-28 12:15:00,
2013-09-28 05:30:00,57.8,36.0,30.02,West,279,0.0,0.0,45,0.00,,,0.00,0,weatherlink.com 1.10,2013-09-28 12:30:00,
2013-09-28 05:45:00,58.1,35.0,30.02,West,279,0.0,0.0,42,0.00,,,0.00,0,weatherlink.com 1.10,2013-09-28 12:45:00,
2013-09-28 06:00:00,58.5,35.0,30.02,West,279,0.0,0.0,42,0.00,,,0.00,0,weatherlink.com 1.10,2013-09-28 13:00:00,
2013-09-28 06:15:00,56.6,35.0,30.03,West,279,0.0,1.0,44,0.00,,,0.00,0,weatherlink.com 1.10,2013-09-28 13:15:00,
2013-09-28 06:30:00,56.4,36.0,30.04,West,279,1.0,2.0,46,0.00,,,0.00,0,weatherlink.com 1.10,2013-09-28 13:30:00,
2013-09-28 06:45:00,55.8,35.0,30.04,West,279,0.0,2.0,45,0.00,,,0.00,0,weatherlink.com 1.10,2013-09-28 13:45:00,
2013-09-28 07:00:00,56.5,35.0,30.04,West,279,1.0,2.0,45,0.00,,,0.00,0,weatherlink.com 1.10,2013-09-28 14:00:00,
2013-09-28 07:15:00,55.2,36.0,30.05,West,279,1.0,2.0,49,0.00,,,0.00,12,weatherlink.com 1.10,2013-09-28 14:15:00,
2013-09-28 07:30:00,54.3,37.0,30.05,West,279,0.0,2.0,53,0.00,,,0.00,21,weatherlink.com 1.10,2013-09-28 14:30:00,
2013-09-28 07:45:00,53.9,37.0,30.05,West,279,0.0,2.0,54,0.00,,,0.00,28,weatherlink.com 1.10,2013-09-28 14:45:00,
2013-09-28 08:00:00,53.8,38.0,30.05,West,279,1.0,2.0,55,0.00,,,0.00,35,weatherlink.com 1.10,2013-09-28 15:00:00,
2013-09-28 08:15:00,56.7,39.0,30.05,West,279,0.0,1.0,51,0.00,,,0.00,42,weatherlink.com 1.10,2013-09-28 15:15:00,
2013-09-28 08:31:00,58.2,39.0,30.05,West,279,0.0,1.0,49,0.00,,,0.00,44,weatherlink.com 1.10,2013-09-28 15:31:00,
2013-09-28 08:46:00,61.0,42.0,30.06,West,279,0.0,0.0,50,0.00,,,0.00,47,weatherlink.com 1.10,2013-09-28 15:46:00,
2013-09-28 09:01:00,62.9,42.0,30.06,West,279,0.0,0.0,46,0.00,,,0.00,51,weatherlink.com 1.10,2013-09-28 16:01:00,
2013-09-28 09:16:00,64.6,41.0,30.06,West,268,0.0,1.0,43,0.00,,,0.00,422,weatherlink.com 1.10,2013-09-28 16:16:00,
2013-09-28 09:31:00,66.3,40.0,30.06,West,268,0.0,1.0,38,0.00,,,0.00,469,weatherlink.com 1.10,2013-09-28 16:31:00,
2013-09-28 09:46:00,67.9,41.0,30.06,West,268,0.0,1.0,38,0.00,,,0.00,515,weatherlink.com 1.10,2013-09-28 16:46:00,
2013-09-28 10:01:00,69.2,41.0,30.06,West,269,0.0,1.0,36,0.00,,,0.00,554,weatherlink.com 1.10,2013-09-28 17:01:00,
2013-09-28 10:16:00,71.1,42.0,30.07,SW,236,0.0,2.0,35,0.00,,,0.00,592,weatherlink.com 1.10,2013-09-28 17:16:00,
2013-09-28 10:31:00,73.3,41.0,30.07,SSE,168,0.0,2.0,31,0.00,,,0.00,629,weatherlink.com 1.10,2013-09-28 17:31:00,
2013-09-28 10:46:00,75.0,39.0,30.07,ESE,122,0.0,3.0,27,0.00,,,0.00,661,weatherlink.com 1.10,2013-09-28 17:46:00,
2013-09-28 11:01:00,76.5,36.0,30.07,ESE,113,0.0,3.0,23,0.00,,,0.00,689,weatherlink.com 1.10,2013-09-28 18:01:00,
2013-09-28 11:16:00,77.2,37.0,30.07,East,82,0.0,3.0,23,0.00,,,0.00,715,weatherlink.com 1.10,2013-09-28 18:16:00,
2013-09-28 11:31:00,77.0,34.0,30.06,East,83,0.0,3.0,21,0.00,,,0.00,742,weatherlink.com 1.10,2013-09-28 18:31:00,
2013-09-28 11:46:00,78.9,37.0,30.06,East,80,0.0,3.0,22,0.00,,,0.00,758,weatherlink.com 1.10,2013-09-28 18:46:00,
2013-09-28 11:53:00,78.0,34.9,30.06,East,82,0.0,0.0,21,0.00,,,0.00,744,Wunderground v.1.15,2013-09-28 18:53:00,
2013-09-28 12:00:00,78.5,34.1,30.06,East,95,0.0,1.0,20,0.00,,,0.00,768,Wunderground v.1.15,2013-09-28 19:00:00,
2013-09-28 12:17:00,81.2,40.0,30.05,ESE,109,0.0,3.0,23,0.00,,,0.00,246,weatherlink.com 1.10,2013-09-28 19:17:00,
2013-09-28 12:32:00,80.4,37.0,30.05,East,89,0.0,3.0,21,0.00,,,0.00,271,weatherlink.com 1.10,2013-09-28 19:32:00,
2013-09-28 12:47:00,79.6,40.0,30.05,ENE,78,3.0,3.0,24,0.00,,,0.00,689,weatherlink.com 1.10,2013-09-28 19:47:00,
2013-09-28 13:02:00,80.1,40.0,30.04,East,100,0.0,2.0,24,0.00,,,0.00,135,weatherlink.com 1.10,2013-09-28 20:02:00,
2013-09-28 13:17:00,79.5,41.0,30.03,North,11,0.0,2.0,25,0.00,,,0.00,137,weatherlink.com 1.10,2013-09-28 20:17:00,
2013-09-28 13:32:00,79.3,42.0,30.03,East,93,0.0,3.0,27,0.00,,,0.00,86,weatherlink.com 1.10,2013-09-28 20:32:00,
2013-09-28 13:47:00,78.4,41.0,30.02,WSW,238,0.0,3.0,26,0.00,,,0.00,213,weatherlink.com 1.10,2013-09-28 20:47:00,
2013-09-28 14:02:00,78.6,42.0,30.02,WSW,238,3.0,4.0,27,0.00,,,0.00,346,weatherlink.com 1.10,2013-09-28 21:02:00,
2013-09-28 14:17:00,78.9,41.0,30.02,WSW,246,2.0,3.0,26,0.00,,,0.00,54,weatherlink.com 1.10,2013-09-28 21:17:00,
2013-09-28 14:32:00,78.6,41.0,30.01,West,265,0.0,3.0,26,0.00,,,0.00,30,weatherlink.com 1.10,2013-09-28 21:32:00,
2013-09-28 14:47:00,79.0,41.0,30.01,WSW,255,0.0,3.0,26,0.00,,,0.00,28,weatherlink.com 1.10,2013-09-28 21:47:00,
2013-09-28 15:02:00,78.5,40.0,30.00,WSW,250,0.0,5.0,25,0.00,,,0.00,28,weatherlink.com 1.10,2013-09-28 22:02:00,
2013-09-28 15:17:00,78.6,38.0,30.00,WSW,257,0.0,3.0,23,0.00,,,0.00,26,weatherlink.com 1.10,2013-09-28 22:17:00,
2013-09-28 15:32:00,78.0,37.0,30.00,West,269,0.0,4.0,23,0.00,,,0.00,25,weatherlink.com 1.10,2013-09-28 22:32:00,
2013-09-28 15:47:00,77.9,38.0,29.99,West,273,0.0,2.0,24,0.00,,,0.00,25,weatherlink.com 1.10,2013-09-28 22:47:00,
2013-09-28 16:02:00,77.7,36.0,29.99,WNW,282,1.0,3.0,22,0.00,,,0.00,23,weatherlink.com 1.10,2013-09-28 23:02:00,
2013-09-28 16:17:00,77.3,36.0,29.99,WSW,253,0.0,3.0,22,0.00,,,0.00,21,weatherlink.com 1.10,2013-09-28 23:17:00,
2013-09-28 16:32:00,76.6,37.0,29.99,WNW,286,0.0,3.0,24,0.00,,,0.00,21,weatherlink.com 1.10,2013-09-28 23:32:00,
2013-09-28 16:47:00,76.2,35.0,29.99,WNW,295,0.0,2.0,22,0.00,,,0.00,19,weatherlink.com 1.10,2013-09-28 23:47:00,
2013-09-28 17:02:00,76.5,35.0,29.99,West,259,0.0,3.0,22,0.00,,,0.00,19,weatherlink.com 1.10,2013-09-29 00:02:00,
2013-09-28 17:17:00,75.5,35.0,29.99,West,267,1.0,4.0,23,0.00,,,0.00,232,weatherlink.com 1.10,2013-09-29 00:17:00,
2013-09-28 17:32:00,74.5,37.0,29.99,West,274,0.0,5.0,26,0.00,,,0.00,21,weatherlink.com 1.10,2013-09-29 00:32:00,
2013-09-28 17:47:00,73.3,35.0,29.99,West,275,1.0,4.0,25,0.00,,,0.00,12,weatherlink.com 1.10,2013-09-29 00:47:00,
2013-09-28 18:02:00,72.4,35.0,29.99,West,277,1.0,3.0,25,0.00,,,0.00,11,weatherlink.com 1.10,2013-09-29 01:02:00,
2013-09-28 18:17:00,72.1,33.0,29.99,West,278,3.0,5.0,24,0.00,,,0.00,9,weatherlink.com 1.10,2013-09-29 01:17:00,
2013-09-28 18:32:00,71.6,32.0,29.99,West,263,1.0,5.0,23,0.00,,,0.00,5,weatherlink.com 1.10,2013-09-29 01:32:00,
2013-09-28 18:47:00,70.1,32.0,29.99,West,265,0.0,3.0,24,0.00,,,0.00,0,weatherlink.com 1.10,2013-09-29 01:47:00,
2013-09-28 19:02:00,69.2,33.0,30.00,West,270,2.0,3.0,26,0.00,,,0.00,0,weatherlink.com 1.10,2013-09-29 02:02:00,
2013-09-28 19:17:00,68.8,34.0,30.00,West,267,0.0,2.0,28,0.00,,,0.00,0,weatherlink.com 1.10,2013-09-29 02:17:00,
2013-09-28 19:32:00,67.4,36.0,30.00,West,267,0.0,1.0,32,0.00,,,0.00,0,weatherlink.com 1.10,2013-09-29 02:32:00,
2013-09-28 19:47:00,66.5,40.0,30.01,West,267,0.0,2.0,38,0.00,,,0.00,0,weatherlink.com 1.10,2013-09-29 02:47:00,
2013-09-28 20:02:00,65.5,48.0,30.02,West,267,2.0,3.0,53,0.00,,,0.00,0,weatherlink.com 1.10,2013-09-29 03:02:00,
2013-09-28 20:17:00,64.6,50.0,30.03,West,271,2.0,3.0,60,0.00,,,0.00,0,weatherlink.com 1.10,2013-09-29 03:17:00,
2013-09-28 20:32:00,63.6,52.0,30.04,West,281,2.0,3.0,66,0.00,,,0.00,0,weatherlink.com 1.10,2013-09-29 03:32:00,
2013-09-28 20:47:00,62.9,54.0,30.04,West,277,3.0,5.0,72,0.00,,,0.00,0,weatherlink.com 1.10,2013-09-29 03:47:00,
2013-09-28 21:02:00,61.9,54.0,30.04,West,276,0.0,3.0,76,0.00,,,0.00,0,weatherlink.com 1.10,2013-09-29 04:02:00,
2013-09-28 21:17:00,61.4,55.0,30.05,West,281,3.0,5.0,79,0.00,,,0.00,0,weatherlink.com 1.10,2013-09-29 04:17:00,
2013-09-28 21:32:00,60.8,55.0,30.05,West,281,1.0,3.0,82,0.00,,,0.00,0,weatherlink.com 1.10,2013-09-29 04:32:00,
2013-09-28 21:47:00,60.0,55.0,30.05,West,281,0.0,0.0,83,0.00,,,0.00,0,weatherlink.com 1.10,2013-09-29 04:47:00,
2013-09-28 22:02:00,59.7,55.0,30.05,West,281,0.0,1.0,85,0.00,,,0.00,0,weatherlink.com 1.10,2013-09-29 05:02:00,
2013-09-28 22:17:00,59.3,55.0,30.06,West,281,0.0,1.0,85,0.00,,,0.00,0,weatherlink.com 1.10,2013-09-29 05:17:00,
2013-09-28 22:32:00,58.7,55.0,30.05,West,281,0.0,0.0,86,0.00,,,0.00,0,weatherlink.com 1.10,2013-09-29 05:32:00,
2013-09-28 22:47:00,58.5,55.0,30.05,West,281,0.0,0.0,87,0.00,,,0.00,0,weatherlink.com 1.10,2013-09-29 05:47:00,
2013-09-28 23:02:00,58.2,54.0,30.06,West,281,1.0,2.0,87,0.00,,,0.00,0,weatherlink.com 1.10,2013-09-29 06:02:00,
2013-09-28 23:17:00,58.5,55.0,30.05,West,281,0.0,2.0,88,0.00,,,0.00,0,weatherlink.com 1.10,2013-09-29 06:17:00,
2013-09-28 23:32:00,58.3,55.0,30.06,West,281,0.0,3.0,88,0.00,,,0.00,0,weatherlink.com 1.10,2013-09-29 06:32:00,
2013-09-28 23:47:00,58.2,55.0,30.07,West,281,0.0,3.0,88,0.00,,,0.00,0,weatherlink.com 1.10,2013-09-29 06:47:00,